sensor_id;sensor_type;location;lat;lon;timestamp;P1;durP1;ratioP1;P2;durP2;ratioP2
17173;SDS011;8702;48.130;-1.696;2023-05-07T00:01:15;8.10;;;3.47;;
17173;SDS011;8702;48.130;-1.696;2023-05-07T00:03:46;11.80;;;4.03;;
17173;SDS011;8702;48.130;-1.696;2023-05-07T00:06:13;10.90;;;3.93;;
17173;SDS011;8702;48.130;-1.696;2023-05-07T00:08:44;13.43;;;3.97;;
17173;SDS011;8702;48.130;-1.696;2023-05-07T00:11:11;13.07;;;3.93;;
17173;SDS011;8702;48.130;-1.696;2023-05-07T00:13:38;12.73;;;4.03;;
17173;SDS011;8702;48.130;-1.696;2023-05-07T00:16:05;12.03;;;3.73;;
17173;SDS011;8702;48.130;-1.696;2023-05-07T00:18:33;11.37;;;3.73;;
17173;SDS011;8702;48.130;-1.696;2023-05-07T00:21:01;8.30;;;3.40;;
17173;SDS011;8702;48.130;-1.696;2023-05-07T00:23:32;11.13;;;3.57;;
17173;SDS011;8702;48.130;-1.696;2023-05-07T00:25:58;10.40;;;3.70;;
17173;SDS011;8702;48.130;-1.696;2023-05-07T00:28:25;9.97;;;3.67;;
17173;SDS011;8702;48.130;-1.696;2023-05-07T00:30:55;10.40;;;3.63;;
17173;SDS011;8702;48.130;-1.696;2023-05-07T00:33:23;11.50;;;3.63;;
17173;SDS011;8702;48.130;-1.696;2023-05-07T00:35:52;9.77;;;4.03;;
17173;SDS011;8702;48.130;-1.696;2023-05-07T00:38:22;15.10;;;4.10;;
17173;SDS011;8702;48.130;-1.696;2023-05-07T00:40:49;10.70;;;3.57;;
17173;SDS011;8702;48.130;-1.696;2023-05-07T00:43:16;13.00;;;3.80;;
17173;SDS011;8702;48.130;-1.696;2023-05-07T00:45:44;10.33;;;3.53;;
17173;SDS011;8702;48.130;-1.696;2023-05-07T00:48:15;12.87;;;3.73;;
17173;SDS011;8702;48.130;-1.696;2023-05-07T00:50:45;6.53;;;3.37;;
17173;SDS011;8702;48.130;-1.696;2023-05-07T00:53:13;11.40;;;4.07;;
17173;SDS011;8702;48.130;-1.696;2023-05-07T00:55:42;9.30;;;3.63;;
17173;SDS011;8702;48.130;-1.696;2023-05-07T00:58:09;8.60;;;3.40;;
17173;SDS011;8702;48.130;-1.696;2023-05-07T01:00:36;7.87;;;3.50;;
17173;SDS011;8702;48.130;-1.696;2023-05-07T01:03:07;9.93;;;3.70;;
17173;SDS011;8702;48.130;-1.696;2023-05-07T01:05:37;9.07;;;3.80;;
17173;SDS011;8702;48.130;-1.696;2023-05-07T01:08:06;8.63;;;3.23;;
17173;SDS011;8702;48.130;-1.696;2023-05-07T01:10:33;8.80;;;3.80;;
17173;SDS011;8702;48.130;-1.696;2023-05-07T01:13:02;11.27;;;3.60;;
17173;SDS011;8702;48.130;-1.696;2023-05-07T01:15:30;10.80;;;3.80;;
17173;SDS011;8702;48.130;-1.696;2023-05-07T01:17:57;9.90;;;3.53;;
17173;SDS011;8702;48.130;-1.696;2023-05-07T01:20:24;8.47;;;2.90;;
17173;SDS011;8702;48.130;-1.696;2023-05-07T01:22:52;10.13;;;3.53;;
17173;SDS011;8702;48.130;-1.696;2023-05-07T01:25:21;10.10;;;3.23;;
17173;SDS011;8702;48.130;-1.696;2023-05-07T01:27:51;12.77;;;4.10;;
17173;SDS011;8702;48.130;-1.696;2023-05-07T01:30:26;11.83;;;3.60;;
17173;SDS011;8702;48.130;-1.696;2023-05-07T01:32:58;8.53;;;3.70;;
17173;SDS011;8702;48.130;-1.696;2023-05-07T01:35:32;9.17;;;3.10;;
17173;SDS011;8702;48.130;-1.696;2023-05-07T01:38:08;12.50;;;3.87;;
17173;SDS011;8702;48.130;-1.696;2023-05-07T01:40:38;9.20;;;3.73;;
17173;SDS011;8702;48.130;-1.696;2023-05-07T01:43:06;12.63;;;4.00;;
17173;SDS011;8702;48.130;-1.696;2023-05-07T01:45:34;10.20;;;4.53;;
17173;SDS011;8702;48.130;-1.696;2023-05-07T01:48:05;8.30;;;3.93;;
17173;SDS011;8702;48.130;-1.696;2023-05-07T01:50:36;8.23;;;3.53;;
17173;SDS011;8702;48.130;-1.696;2023-05-07T01:53:05;9.40;;;3.70;;
17173;SDS011;8702;48.130;-1.696;2023-05-07T01:55:35;11.90;;;3.73;;
17173;SDS011;8702;48.130;-1.696;2023-05-07T01:58:02;10.30;;;3.80;;
17173;SDS011;8702;48.130;-1.696;2023-05-07T02:00:29;9.67;;;3.50;;
17173;SDS011;8702;48.130;-1.696;2023-05-07T02:02:57;11.47;;;3.97;;
17173;SDS011;8702;48.130;-1.696;2023-05-07T02:05:24;8.23;;;3.90;;
17173;SDS011;8702;48.130;-1.696;2023-05-07T02:07:51;11.33;;;3.40;;
17173;SDS011;8702;48.130;-1.696;2023-05-07T02:10:19;9.83;;;3.60;;
17173;SDS011;8702;48.130;-1.696;2023-05-07T02:12:46;6.87;;;3.40;;
17173;SDS011;8702;48.130;-1.696;2023-05-07T02:15:13;9.00;;;3.37;;
17173;SDS011;8702;48.130;-1.696;2023-05-07T02:20:25;8.50;;;3.80;;
17173;SDS011;8702;48.130;-1.696;2023-05-07T02:22:52;11.13;;;3.70;;
17173;SDS011;8702;48.130;-1.696;2023-05-07T02:25:20;9.67;;;3.97;;
17173;SDS011;8702;48.130;-1.696;2023-05-07T02:27:47;12.13;;;3.70;;
17173;SDS011;8702;48.130;-1.696;2023-05-07T02:30:14;11.27;;;3.80;;
17173;SDS011;8702;48.130;-1.696;2023-05-07T02:32:41;7.47;;;3.33;;
17173;SDS011;8702;48.130;-1.696;2023-05-07T02:35:08;10.23;;;3.97;;
17173;SDS011;8702;48.130;-1.696;2023-05-07T02:37:36;10.63;;;4.13;;
17173;SDS011;8702;48.130;-1.696;2023-05-07T02:40:03;9.97;;;4.17;;
17173;SDS011;8702;48.130;-1.696;2023-05-07T02:42:32;8.10;;;3.40;;
17173;SDS011;8702;48.130;-1.696;2023-05-07T02:44:59;8.67;;;3.30;;
17173;SDS011;8702;48.130;-1.696;2023-05-07T02:47:26;8.17;;;3.40;;
17173;SDS011;8702;48.130;-1.696;2023-05-07T02:49:53;8.00;;;4.00;;
17173;SDS011;8702;48.130;-1.696;2023-05-07T02:52:20;10.03;;;3.77;;
17173;SDS011;8702;48.130;-1.696;2023-05-07T02:54:47;7.57;;;3.77;;
17173;SDS011;8702;48.130;-1.696;2023-05-07T02:57:14;8.80;;;3.87;;
17173;SDS011;8702;48.130;-1.696;2023-05-07T02:59:43;12.37;;;4.10;;
17173;SDS011;8702;48.130;-1.696;2023-05-07T03:02:10;8.07;;;3.73;;
17173;SDS011;8702;48.130;-1.696;2023-05-07T03:04:37;9.03;;;4.13;;
17173;SDS011;8702;48.130;-1.696;2023-05-07T03:07:05;10.13;;;3.70;;
17173;SDS011;8702;48.130;-1.696;2023-05-07T03:09:32;12.23;;;4.30;;
17173;SDS011;8702;48.130;-1.696;2023-05-07T03:11:59;9.97;;;3.80;;
17173;SDS011;8702;48.130;-1.696;2023-05-07T03:14:26;12.33;;;4.03;;
17173;SDS011;8702;48.130;-1.696;2023-05-07T03:16:56;12.03;;;4.47;;
17173;SDS011;8702;48.130;-1.696;2023-05-07T03:19:23;13.10;;;4.37;;
17173;SDS011;8702;48.130;-1.696;2023-05-07T03:21:50;9.60;;;3.63;;
17173;SDS011;8702;48.130;-1.696;2023-05-07T03:24:17;9.20;;;3.77;;
17173;SDS011;8702;48.130;-1.696;2023-05-07T03:26:44;11.60;;;4.00;;
17173;SDS011;8702;48.130;-1.696;2023-05-07T03:29:12;15.10;;;4.40;;
17173;SDS011;8702;48.130;-1.696;2023-05-07T03:31:38;13.03;;;4.00;;
17173;SDS011;8702;48.130;-1.696;2023-05-07T03:34:07;8.60;;;3.60;;
17173;SDS011;8702;48.130;-1.696;2023-05-07T03:36:34;10.97;;;3.77;;
17173;SDS011;8702;48.130;-1.696;2023-05-07T03:39:01;11.27;;;4.23;;
17173;SDS011;8702;48.130;-1.696;2023-05-07T03:41:28;10.03;;;3.97;;
17173;SDS011;8702;48.130;-1.696;2023-05-07T03:43:55;11.00;;;4.57;;
17173;SDS011;8702;48.130;-1.696;2023-05-07T03:46:22;11.53;;;4.37;;
17173;SDS011;8702;48.130;-1.696;2023-05-07T03:48:51;11.00;;;3.77;;
17173;SDS011;8702;48.130;-1.696;2023-05-07T03:51:19;7.30;;;3.53;;
17173;SDS011;8702;48.130;-1.696;2023-05-07T03:53:46;6.70;;;3.73;;
17173;SDS011;8702;48.130;-1.696;2023-05-07T03:56:13;7.13;;;3.63;;
17173;SDS011;8702;48.130;-1.696;2023-05-07T03:58:40;12.30;;;4.13;;
17173;SDS011;8702;48.130;-1.696;2023-05-07T04:01:07;11.43;;;3.97;;
17173;SDS011;8702;48.130;-1.696;2023-05-07T04:03:34;10.93;;;3.73;;
17173;SDS011;8702;48.130;-1.696;2023-05-07T04:06:01;10.70;;;3.90;;
17173;SDS011;8702;48.130;-1.696;2023-05-07T04:08:30;10.57;;;4.33;;
17173;SDS011;8702;48.130;-1.696;2023-05-07T04:10:56;8.53;;;3.90;;
17173;SDS011;8702;48.130;-1.696;2023-05-07T04:13:24;11.43;;;3.73;;
17173;SDS011;8702;48.130;-1.696;2023-05-07T04:15:51;8.17;;;3.70;;
17173;SDS011;8702;48.130;-1.696;2023-05-07T04:18:19;8.87;;;3.60;;
17173;SDS011;8702;48.130;-1.696;2023-05-07T04:20:46;8.17;;;4.17;;
17173;SDS011;8702;48.130;-1.696;2023-05-07T04:23:14;9.63;;;3.93;;
17173;SDS011;8702;48.130;-1.696;2023-05-07T04:25:43;11.77;;;3.90;;
17173;SDS011;8702;48.130;-1.696;2023-05-07T04:28:13;7.57;;;3.77;;
17173;SDS011;8702;48.130;-1.696;2023-05-07T04:30:40;7.43;;;3.67;;
17173;SDS011;8702;48.130;-1.696;2023-05-07T04:33:07;9.40;;;4.03;;
17173;SDS011;8702;48.130;-1.696;2023-05-07T04:35:34;9.20;;;4.10;;
17173;SDS011;8702;48.130;-1.696;2023-05-07T04:38:02;8.83;;;3.67;;
17173;SDS011;8702;48.130;-1.696;2023-05-07T04:40:29;5.67;;;3.43;;
17173;SDS011;8702;48.130;-1.696;2023-05-07T04:42:58;7.77;;;3.47;;
17173;SDS011;8702;48.130;-1.696;2023-05-07T04:45:25;7.43;;;3.50;;
17173;SDS011;8702;48.130;-1.696;2023-05-07T04:47:52;8.23;;;3.13;;
17173;SDS011;8702;48.130;-1.696;2023-05-07T04:50:20;7.33;;;3.27;;
17173;SDS011;8702;48.130;-1.696;2023-05-07T04:52:49;7.87;;;3.33;;
17173;SDS011;8702;48.130;-1.696;2023-05-07T04:55:16;5.43;;;3.27;;
17173;SDS011;8702;48.130;-1.696;2023-05-07T04:57:45;7.60;;;3.40;;
17173;SDS011;8702;48.130;-1.696;2023-05-07T05:00:13;7.70;;;3.60;;
17173;SDS011;8702;48.130;-1.696;2023-05-07T05:02:41;8.07;;;3.50;;
17173;SDS011;8702;48.130;-1.696;2023-05-07T05:05:08;7.80;;;3.43;;
17173;SDS011;8702;48.130;-1.696;2023-05-07T05:07:36;6.67;;;3.13;;
17173;SDS011;8702;48.130;-1.696;2023-05-07T05:10:04;8.50;;;3.63;;
17173;SDS011;8702;48.130;-1.696;2023-05-07T05:12:32;6.23;;;3.47;;
17173;SDS011;8702;48.130;-1.696;2023-05-07T05:14:59;5.83;;;3.33;;
17173;SDS011;8702;48.130;-1.696;2023-05-07T05:17:27;4.80;;;3.17;;
17173;SDS011;8702;48.130;-1.696;2023-05-07T05:19:55;7.30;;;3.50;;
17173;SDS011;8702;48.130;-1.696;2023-05-07T05:22:22;4.83;;;2.67;;
17173;SDS011;8702;48.130;-1.696;2023-05-07T05:24:50;7.13;;;3.63;;
17173;SDS011;8702;48.130;-1.696;2023-05-07T05:27:17;6.90;;;3.50;;
17173;SDS011;8702;48.130;-1.696;2023-05-07T05:29:45;8.20;;;3.73;;
17173;SDS011;8702;48.130;-1.696;2023-05-07T05:32:12;6.63;;;3.50;;
17173;SDS011;8702;48.130;-1.696;2023-05-07T05:34:41;6.17;;;3.67;;
17173;SDS011;8702;48.130;-1.696;2023-05-07T05:37:08;3.90;;;2.97;;
17173;SDS011;8702;48.130;-1.696;2023-05-07T05:39:35;5.63;;;3.40;;
17173;SDS011;8702;48.130;-1.696;2023-05-07T05:42:03;7.30;;;3.90;;
17173;SDS011;8702;48.130;-1.696;2023-05-07T05:44:30;8.40;;;3.93;;
17173;SDS011;8702;48.130;-1.696;2023-05-07T05:46:58;6.40;;;3.67;;
17173;SDS011;8702;48.130;-1.696;2023-05-07T05:49:26;4.33;;;3.10;;
17173;SDS011;8702;48.130;-1.696;2023-05-07T05:51:54;5.50;;;3.70;;
17173;SDS011;8702;48.130;-1.696;2023-05-07T05:54:21;7.43;;;3.70;;
17173;SDS011;8702;48.130;-1.696;2023-05-07T05:56:49;5.40;;;3.40;;
17173;SDS011;8702;48.130;-1.696;2023-05-07T05:59:16;7.60;;;3.67;;
17173;SDS011;8702;48.130;-1.696;2023-05-07T06:01:43;5.50;;;3.60;;
17173;SDS011;8702;48.130;-1.696;2023-05-07T06:04:10;5.60;;;3.67;;
17173;SDS011;8702;48.130;-1.696;2023-05-07T06:06:37;8.03;;;3.73;;
17173;SDS011;8702;48.130;-1.696;2023-05-07T06:09:06;5.27;;;3.93;;
17173;SDS011;8702;48.130;-1.696;2023-05-07T06:11:33;6.77;;;3.73;;
17173;SDS011;8702;48.130;-1.696;2023-05-07T06:14:00;6.70;;;3.83;;
17173;SDS011;8702;48.130;-1.696;2023-05-07T06:16:28;5.13;;;3.83;;
17173;SDS011;8702;48.130;-1.696;2023-05-07T06:18:55;6.13;;;3.93;;
17173;SDS011;8702;48.130;-1.696;2023-05-07T06:21:22;6.50;;;3.97;;
17173;SDS011;8702;48.130;-1.696;2023-05-07T06:23:49;4.97;;;3.57;;
17173;SDS011;8702;48.130;-1.696;2023-05-07T06:26:18;6.57;;;3.67;;
17173;SDS011;8702;48.130;-1.696;2023-05-07T06:28:45;6.97;;;3.80;;
17173;SDS011;8702;48.130;-1.696;2023-05-07T06:31:15;6.47;;;3.63;;
17173;SDS011;8702;48.130;-1.696;2023-05-07T06:33:45;5.57;;;3.77;;
17173;SDS011;8702;48.130;-1.696;2023-05-07T06:36:12;5.10;;;3.57;;
17173;SDS011;8702;48.130;-1.696;2023-05-07T06:38:39;5.43;;;3.67;;
17173;SDS011;8702;48.130;-1.696;2023-05-07T06:41:06;4.37;;;3.30;;
17173;SDS011;8702;48.130;-1.696;2023-05-07T06:43:35;6.60;;;3.50;;
17173;SDS011;8702;48.130;-1.696;2023-05-07T06:46:02;4.13;;;3.37;;
17173;SDS011;8702;48.130;-1.696;2023-05-07T06:48:32;4.50;;;3.60;;
17173;SDS011;8702;48.130;-1.696;2023-05-07T06:50:59;5.57;;;3.73;;
17173;SDS011;8702;48.130;-1.696;2023-05-07T06:53:26;4.10;;;3.10;;
17173;SDS011;8702;48.130;-1.696;2023-05-07T06:55:54;3.67;;;3.33;;
17173;SDS011;8702;48.130;-1.696;2023-05-07T06:58:21;4.53;;;3.67;;
17173;SDS011;8702;48.130;-1.696;2023-05-07T07:00:49;5.73;;;3.50;;
17173;SDS011;8702;48.130;-1.696;2023-05-07T07:03:16;4.80;;;3.57;;
17173;SDS011;8702;48.130;-1.696;2023-05-07T07:05:43;5.80;;;4.30;;
17173;SDS011;8702;48.130;-1.696;2023-05-07T07:08:10;5.63;;;5.03;;
17173;SDS011;8702;48.130;-1.696;2023-05-07T07:10:37;5.83;;;4.70;;
17173;SDS011;8702;48.130;-1.696;2023-05-07T07:13:04;6.03;;;5.43;;
17173;SDS011;8702;48.130;-1.696;2023-05-07T07:15:31;7.57;;;5.37;;
17173;SDS011;8702;48.130;-1.696;2023-05-07T07:17:59;8.53;;;6.30;;
17173;SDS011;8702;48.130;-1.696;2023-05-07T07:20:26;8.73;;;6.00;;
17173;SDS011;8702;48.130;-1.696;2023-05-07T07:22:53;6.90;;;5.87;;
17173;SDS011;8702;48.130;-1.696;2023-05-07T07:25:20;8.83;;;5.90;;
17173;SDS011;8702;48.130;-1.696;2023-05-07T07:27:48;7.00;;;6.00;;
17173;SDS011;8702;48.130;-1.696;2023-05-07T07:30:15;7.37;;;6.57;;
17173;SDS011;8702;48.130;-1.696;2023-05-07T07:32:43;9.73;;;6.90;;
17173;SDS011;8702;48.130;-1.696;2023-05-07T07:35:11;10.20;;;6.97;;
17173;SDS011;8702;48.130;-1.696;2023-05-07T07:37:38;8.67;;;7.67;;
17173;SDS011;8702;48.130;-1.696;2023-05-07T07:40:05;10.37;;;7.40;;
17173;SDS011;8702;48.130;-1.696;2023-05-07T07:42:33;10.57;;;7.77;;
17173;SDS011;8702;48.130;-1.696;2023-05-07T07:45:00;8.63;;;7.63;;
17173;SDS011;8702;48.130;-1.696;2023-05-07T07:47:27;10.10;;;8.30;;
17173;SDS011;8702;48.130;-1.696;2023-05-07T07:49:54;8.93;;;7.40;;
17173;SDS011;8702;48.130;-1.696;2023-05-07T07:52:23;9.30;;;7.40;;
17173;SDS011;8702;48.130;-1.696;2023-05-07T07:54:50;8.20;;;6.97;;
17173;SDS011;8702;48.130;-1.696;2023-05-07T07:57:17;8.50;;;6.93;;
17173;SDS011;8702;48.130;-1.696;2023-05-07T07:59:44;7.23;;;6.03;;
17173;SDS011;8702;48.130;-1.696;2023-05-07T08:02:11;7.47;;;6.40;;
17173;SDS011;8702;48.130;-1.696;2023-05-07T08:04:37;8.60;;;6.90;;
17173;SDS011;8702;48.130;-1.696;2023-05-07T08:07:04;8.13;;;6.53;;
17173;SDS011;8702;48.130;-1.696;2023-05-07T08:09:33;7.47;;;5.80;;
17173;SDS011;8702;48.130;-1.696;2023-05-07T08:12:00;7.17;;;5.20;;
17173;SDS011;8702;48.130;-1.696;2023-05-07T08:14:27;5.20;;;4.70;;
17173;SDS011;8702;48.130;-1.696;2023-05-07T08:16:54;5.03;;;4.53;;
17173;SDS011;8702;48.130;-1.696;2023-05-07T08:19:24;5.20;;;4.53;;
17173;SDS011;8702;48.130;-1.696;2023-05-07T08:21:51;5.80;;;4.60;;
17173;SDS011;8702;48.130;-1.696;2023-05-07T08:24:18;4.40;;;4.00;;
17173;SDS011;8702;48.130;-1.696;2023-05-07T08:26:47;4.77;;;4.27;;
17173;SDS011;8702;48.130;-1.696;2023-05-07T08:29:14;5.83;;;4.67;;
17173;SDS011;8702;48.130;-1.696;2023-05-07T08:31:41;4.83;;;4.17;;
17173;SDS011;8702;48.130;-1.696;2023-05-07T08:34:08;6.30;;;4.83;;
17173;SDS011;8702;48.130;-1.696;2023-05-07T08:36:35;6.10;;;4.57;;
17173;SDS011;8702;48.130;-1.696;2023-05-07T08:39:02;5.00;;;4.50;;
17173;SDS011;8702;48.130;-1.696;2023-05-07T08:41:29;6.07;;;4.83;;
17173;SDS011;8702;48.130;-1.696;2023-05-07T08:43:58;5.20;;;4.43;;
17173;SDS011;8702;48.130;-1.696;2023-05-07T08:46:29;4.57;;;4.17;;
17173;SDS011;8702;48.130;-1.696;2023-05-07T08:48:58;5.33;;;4.13;;
17173;SDS011;8702;48.130;-1.696;2023-05-07T08:51:25;6.07;;;3.97;;
17173;SDS011;8702;48.130;-1.696;2023-05-07T08:53:52;4.10;;;3.70;;
17173;SDS011;8702;48.130;-1.696;2023-05-07T08:56:19;4.37;;;3.97;;
17173;SDS011;8702;48.130;-1.696;2023-05-07T08:58:47;4.77;;;4.20;;
17173;SDS011;8702;48.130;-1.696;2023-05-07T09:01:16;4.20;;;3.80;;
17173;SDS011;8702;48.130;-1.696;2023-05-07T09:03:44;4.37;;;3.97;;
17173;SDS011;8702;48.130;-1.696;2023-05-07T09:06:11;4.63;;;4.13;;
17173;SDS011;8702;48.130;-1.696;2023-05-07T09:08:38;4.67;;;4.27;;
17173;SDS011;8702;48.130;-1.696;2023-05-07T09:11:06;4.50;;;4.10;;
17173;SDS011;8702;48.130;-1.696;2023-05-07T09:13:32;4.50;;;4.10;;
17173;SDS011;8702;48.130;-1.696;2023-05-07T09:16:06;4.60;;;4.03;;
17173;SDS011;8702;48.130;-1.696;2023-05-07T09:18:41;4.60;;;4.10;;
17173;SDS011;8702;48.130;-1.696;2023-05-07T09:21:10;6.63;;;3.70;;
17173;SDS011;8702;48.130;-1.696;2023-05-07T09:23:37;4.60;;;4.07;;
17173;SDS011;8702;48.130;-1.696;2023-05-07T09:26:05;3.97;;;3.67;;
17173;SDS011;8702;48.130;-1.696;2023-05-07T09:28:37;5.90;;;3.77;;
17173;SDS011;8702;48.130;-1.696;2023-05-07T09:31:05;3.60;;;3.30;;
17173;SDS011;8702;48.130;-1.696;2023-05-07T09:33:32;3.40;;;3.10;;
17173;SDS011;8702;48.130;-1.696;2023-05-07T09:36:03;3.70;;;3.40;;
17173;SDS011;8702;48.130;-1.696;2023-05-07T09:38:31;3.93;;;3.40;;
17173;SDS011;8702;48.130;-1.696;2023-05-07T09:41:01;3.50;;;3.20;;
17173;SDS011;8702;48.130;-1.696;2023-05-07T09:43:31;3.70;;;3.00;;
17173;SDS011;8702;48.130;-1.696;2023-05-07T09:46:00;3.80;;;2.70;;
17173;SDS011;8702;48.130;-1.696;2023-05-07T09:48:29;5.50;;;3.03;;
17173;SDS011;8702;48.130;-1.696;2023-05-07T09:50:58;2.80;;;2.50;;
17173;SDS011;8702;48.130;-1.696;2023-05-07T09:53:33;3.83;;;2.77;;
17173;SDS011;8702;48.130;-1.696;2023-05-07T09:56:00;3.10;;;2.80;;
17173;SDS011;8702;48.130;-1.696;2023-05-07T09:58:28;3.50;;;3.10;;
17173;SDS011;8702;48.130;-1.696;2023-05-07T10:00:56;3.30;;;3.00;;
17173;SDS011;8702;48.130;-1.696;2023-05-07T10:03:24;4.23;;;3.60;;
17173;SDS011;8702;48.130;-1.696;2023-05-07T10:05:54;3.30;;;3.00;;
17173;SDS011;8702;48.130;-1.696;2023-05-07T10:08:23;3.60;;;3.17;;
17173;SDS011;8702;48.130;-1.696;2023-05-07T10:10:50;3.37;;;3.07;;
17173;SDS011;8702;48.130;-1.696;2023-05-07T10:13:18;4.93;;;2.73;;
17173;SDS011;8702;48.130;-1.696;2023-05-07T10:15:45;3.33;;;3.03;;
17173;SDS011;8702;48.130;-1.696;2023-05-07T10:18:14;3.57;;;3.27;;
17173;SDS011;8702;48.130;-1.696;2023-05-07T10:20:42;4.23;;;3.37;;
17173;SDS011;8702;48.130;-1.696;2023-05-07T10:23:12;4.07;;;2.50;;
17173;SDS011;8702;48.130;-1.696;2023-05-07T10:25:44;2.40;;;2.17;;
17173;SDS011;8702;48.130;-1.696;2023-05-07T10:28:12;2.93;;;2.70;;
17173;SDS011;8702;48.130;-1.696;2023-05-07T10:30:46;2.57;;;2.37;;
17173;SDS011;8702;48.130;-1.696;2023-05-07T10:33:22;2.80;;;2.10;;
17173;SDS011;8702;48.130;-1.696;2023-05-07T10:35:51;2.80;;;2.47;;
17173;SDS011;8702;48.130;-1.696;2023-05-07T10:38:24;2.77;;;2.43;;
17173;SDS011;8702;48.130;-1.696;2023-05-07T10:40:52;3.43;;;3.13;;
17173;SDS011;8702;48.130;-1.696;2023-05-07T10:43:20;4.80;;;4.03;;
17173;SDS011;8702;48.130;-1.696;2023-05-07T10:51:41;4.40;;;4.00;;
17173;SDS011;8702;48.130;-1.696;2023-05-07T10:54:20;5.77;;;4.60;;
17173;SDS011;8702;48.130;-1.696;2023-05-07T10:56:49;5.67;;;4.40;;
17173;SDS011;8702;48.130;-1.696;2023-05-07T10:59:35;6.00;;;4.63;;
17173;SDS011;8702;48.130;-1.696;2023-05-07T11:02:08;4.73;;;4.03;;
17173;SDS011;8702;48.130;-1.696;2023-05-07T11:04:36;4.93;;;3.53;;
17173;SDS011;8702;48.130;-1.696;2023-05-07T11:09:57;4.57;;;3.67;;
17173;SDS011;8702;48.130;-1.696;2023-05-07T11:18:06;6.77;;;4.70;;
17173;SDS011;8702;48.130;-1.696;2023-05-07T11:20:47;6.03;;;4.30;;
17173;SDS011;8702;48.130;-1.696;2023-05-07T11:26:24;5.20;;;4.23;;
17173;SDS011;8702;48.130;-1.696;2023-05-07T11:28:54;4.77;;;3.93;;
17173;SDS011;8702;48.130;-1.696;2023-05-07T11:31:22;5.90;;;4.20;;
17173;SDS011;8702;48.130;-1.696;2023-05-07T11:33:51;5.00;;;4.23;;
17173;SDS011;8702;48.130;-1.696;2023-05-07T11:36:20;6.10;;;4.13;;
17173;SDS011;8702;48.130;-1.696;2023-05-07T11:38:48;5.00;;;3.93;;
17173;SDS011;8702;48.130;-1.696;2023-05-07T11:41:15;5.20;;;3.67;;
17173;SDS011;8702;48.130;-1.696;2023-05-07T11:43:56;3.77;;;2.93;;
17173;SDS011;8702;48.130;-1.696;2023-05-07T11:46:24;3.00;;;2.70;;
17173;SDS011;8702;48.130;-1.696;2023-05-07T11:48:52;5.07;;;3.40;;
17173;SDS011;8702;48.130;-1.696;2023-05-07T11:51:20;4.90;;;3.53;;
17173;SDS011;8702;48.130;-1.696;2023-05-07T11:53:47;7.97;;;4.20;;
17173;SDS011;8702;48.130;-1.696;2023-05-07T11:56:15;7.67;;;4.03;;
17173;SDS011;8702;48.130;-1.696;2023-05-07T11:58:43;6.67;;;4.10;;
17173;SDS011;8702;48.130;-1.696;2023-05-07T12:01:12;8.17;;;4.30;;
17173;SDS011;8702;48.130;-1.696;2023-05-07T12:03:41;7.83;;;4.23;;
17173;SDS011;8702;48.130;-1.696;2023-05-07T12:06:10;8.47;;;4.33;;
17173;SDS011;8702;48.130;-1.696;2023-05-07T12:08:41;7.27;;;3.83;;
17173;SDS011;8702;48.130;-1.696;2023-05-07T12:11:10;9.03;;;3.70;;
17173;SDS011;8702;48.130;-1.696;2023-05-07T12:13:40;9.20;;;4.30;;
17173;SDS011;8702;48.130;-1.696;2023-05-07T12:16:08;6.93;;;3.33;;
17173;SDS011;8702;48.130;-1.696;2023-05-07T12:18:37;7.93;;;3.77;;
17173;SDS011;8702;48.130;-1.696;2023-05-07T12:21:04;10.67;;;4.40;;
17173;SDS011;8702;48.130;-1.696;2023-05-07T12:23:32;7.33;;;3.63;;
17173;SDS011;8702;48.130;-1.696;2023-05-07T12:26:00;6.77;;;3.70;;
17173;SDS011;8702;48.130;-1.696;2023-05-07T12:28:28;7.63;;;4.13;;
17173;SDS011;8702;48.130;-1.696;2023-05-07T12:30:55;9.33;;;4.33;;
17173;SDS011;8702;48.130;-1.696;2023-05-07T12:33:24;6.97;;;3.83;;
17173;SDS011;8702;48.130;-1.696;2023-05-07T12:35:55;7.87;;;3.90;;
17173;SDS011;8702;48.130;-1.696;2023-05-07T12:38:22;9.17;;;4.13;;
17173;SDS011;8702;48.130;-1.696;2023-05-07T12:40:50;8.93;;;4.20;;
17173;SDS011;8702;48.130;-1.696;2023-05-07T12:43:20;7.87;;;3.50;;
17173;SDS011;8702;48.130;-1.696;2023-05-07T12:45:50;8.40;;;3.83;;
17173;SDS011;8702;48.130;-1.696;2023-05-07T12:48:18;7.37;;;3.13;;
17173;SDS011;8702;48.130;-1.696;2023-05-07T12:50:48;6.23;;;3.20;;
17173;SDS011;8702;48.130;-1.696;2023-05-07T12:53:19;8.40;;;3.33;;
17173;SDS011;8702;48.130;-1.696;2023-05-07T12:55:48;6.40;;;3.40;;
17173;SDS011;8702;48.130;-1.696;2023-05-07T12:58:16;6.77;;;3.10;;
17173;SDS011;8702;48.130;-1.696;2023-05-07T13:00:44;7.27;;;3.10;;
17173;SDS011;8702;48.130;-1.696;2023-05-07T13:03:16;4.00;;;2.20;;
17173;SDS011;8702;48.130;-1.696;2023-05-07T13:05:49;6.27;;;2.60;;
17173;SDS011;8702;48.130;-1.696;2023-05-07T13:08:28;5.93;;;2.73;;
17173;SDS011;8702;48.130;-1.696;2023-05-07T13:10:57;5.50;;;2.90;;
17173;SDS011;8702;48.130;-1.696;2023-05-07T13:13:25;7.57;;;2.97;;
17173;SDS011;8702;48.130;-1.696;2023-05-07T13:15:52;7.03;;;2.83;;
17173;SDS011;8702;48.130;-1.696;2023-05-07T13:18:19;5.20;;;2.87;;
17173;SDS011;8702;48.130;-1.696;2023-05-07T13:20:46;4.20;;;2.83;;
17173;SDS011;8702;48.130;-1.696;2023-05-07T13:23:13;4.20;;;2.50;;
17173;SDS011;8702;48.130;-1.696;2023-05-07T13:25:41;6.97;;;2.80;;
17173;SDS011;8702;48.130;-1.696;2023-05-07T13:28:08;3.87;;;2.37;;
17173;SDS011;8702;48.130;-1.696;2023-05-07T13:30:35;6.47;;;2.50;;
17173;SDS011;8702;48.130;-1.696;2023-05-07T13:33:02;4.47;;;2.10;;
17173;SDS011;8702;48.130;-1.696;2023-05-07T13:35:30;4.90;;;3.20;;
17173;SDS011;8702;48.130;-1.696;2023-05-07T13:37:57;5.57;;;3.40;;
17173;SDS011;8702;48.130;-1.696;2023-05-07T13:40:24;5.20;;;2.40;;
17173;SDS011;8702;48.130;-1.696;2023-05-07T13:42:52;5.50;;;2.23;;
17173;SDS011;8702;48.130;-1.696;2023-05-07T13:45:20;3.67;;;2.20;;
17173;SDS011;8702;48.130;-1.696;2023-05-07T13:47:50;2.83;;;1.77;;
17173;SDS011;8702;48.130;-1.696;2023-05-07T13:50:18;2.87;;;2.00;;
17173;SDS011;8702;48.130;-1.696;2023-05-07T13:52:45;3.97;;;1.63;;
17173;SDS011;8702;48.130;-1.696;2023-05-07T13:55:15;3.93;;;1.90;;
17173;SDS011;8702;48.130;-1.696;2023-05-07T13:57:43;4.33;;;1.67;;
17173;SDS011;8702;48.130;-1.696;2023-05-07T14:00:12;3.17;;;1.77;;
17173;SDS011;8702;48.130;-1.696;2023-05-07T14:02:40;2.70;;;1.80;;
17173;SDS011;8702;48.130;-1.696;2023-05-07T14:05:07;4.87;;;2.20;;
17173;SDS011;8702;48.130;-1.696;2023-05-07T14:07:35;5.17;;;1.67;;
17173;SDS011;8702;48.130;-1.696;2023-05-07T14:10:02;3.80;;;1.70;;
17173;SDS011;8702;48.130;-1.696;2023-05-07T14:12:29;2.97;;;1.90;;
17173;SDS011;8702;48.130;-1.696;2023-05-07T14:14:57;3.10;;;1.77;;
17173;SDS011;8702;48.130;-1.696;2023-05-07T14:17:28;5.53;;;1.93;;
17173;SDS011;8702;48.130;-1.696;2023-05-07T14:19:55;2.93;;;1.83;;
17173;SDS011;8702;48.130;-1.696;2023-05-07T14:22:23;3.50;;;1.60;;
17173;SDS011;8702;48.130;-1.696;2023-05-07T14:24:50;2.97;;;1.80;;
17173;SDS011;8702;48.130;-1.696;2023-05-07T14:27:20;3.93;;;1.90;;
17173;SDS011;8702;48.130;-1.696;2023-05-07T14:29:47;4.13;;;1.80;;
17173;SDS011;8702;48.130;-1.696;2023-05-07T14:32:16;3.93;;;1.77;;
17173;SDS011;8702;48.130;-1.696;2023-05-07T14:34:45;4.00;;;1.70;;
17173;SDS011;8702;48.130;-1.696;2023-05-07T14:37:12;4.50;;;1.90;;
17173;SDS011;8702;48.130;-1.696;2023-05-07T14:39:39;4.07;;;2.00;;
17173;SDS011;8702;48.130;-1.696;2023-05-07T14:42:06;3.17;;;1.70;;
17173;SDS011;8702;48.130;-1.696;2023-05-07T14:44:33;7.10;;;2.30;;
17173;SDS011;8702;48.130;-1.696;2023-05-07T14:47:00;4.33;;;1.80;;
17173;SDS011;8702;48.130;-1.696;2023-05-07T14:49:27;3.77;;;1.70;;
17173;SDS011;8702;48.130;-1.696;2023-05-07T14:51:56;4.00;;;1.83;;
17173;SDS011;8702;48.130;-1.696;2023-05-07T14:54:24;5.43;;;1.83;;
17173;SDS011;8702;48.130;-1.696;2023-05-07T14:56:51;2.93;;;1.90;;
17173;SDS011;8702;48.130;-1.696;2023-05-07T14:59:18;3.30;;;1.83;;
17173;SDS011;8702;48.130;-1.696;2023-05-07T15:01:46;4.37;;;2.00;;
17173;SDS011;8702;48.130;-1.696;2023-05-07T15:04:13;6.20;;;1.87;;
17173;SDS011;8702;48.130;-1.696;2023-05-07T15:06:40;3.37;;;1.87;;
17173;SDS011;8702;48.130;-1.696;2023-05-07T15:09:08;2.97;;;1.60;;
17173;SDS011;8702;48.130;-1.696;2023-05-07T15:11:35;3.97;;;1.80;;